sensor_id;sensor_type;location;lat;lon;timestamp;pressure;altitude;pressure_sealevel;temperature;humidity
54248;BME280;40161;39.768;2.722;2023-04-24T05:27:20;101147.56;;;14.15;73.32
54248;BME280;40161;39.768;2.722;2023-04-24T05:29:46;101165.75;;;14.23;72.84
54248;BME280;40161;39.768;2.722;2023-04-24T05:32:11;101150.31;;;14.15;72.84
54248;BME280;40161;39.768;2.722;2023-04-24T05:34:37;101150.63;;;14.07;73.48
54248;BME280;40161;39.768;2.722;2023-04-24T05:37:03;101149.13;;;14.16;73.68
54248;BME280;40161;39.768;2.722;2023-04-24T05:39:29;101172.25;;;14.42;72.25
54248;BME280;40161;39.768;2.722;2023-04-24T05:41:54;101183.69;;;14.44;72.80
54248;BME280;40161;39.768;2.722;2023-04-24T05:44:23;101179.00;;;14.48;73.44
54248;BME280;40161;39.768;2.722;2023-04-24T05:46:48;101188.50;;;14.51;72.37
54248;BME280;40161;39.768;2.722;2023-04-24T05:49:14;101179.44;;;14.50;72.07
54248;BME280;40161;39.768;2.722;2023-04-24T05:51:39;101170.69;;;14.44;72.39
54248;BME280;40161;39.768;2.722;2023-04-24T05:54:05;101180.28;;;14.58;72.34
54248;BME280;40161;39.768;2.722;2023-04-24T05:56:30;101171.97;;;14.54;72.07
54248;BME280;40161;39.768;2.722;2023-04-24T05:58:56;101171.59;;;14.52;72.11
54248;BME280;40161;39.768;2.722;2023-04-24T06:01:22;101174.78;;;14.61;71.48
54248;BME280;40161;39.768;2.722;2023-04-24T06:03:48;101167.72;;;14.64;71.27
54248;BME280;40161;39.768;2.722;2023-04-24T06:06:20;101188.75;;;14.83;71.35
54248;BME280;40161;39.768;2.722;2023-04-24T06:08:46;101174.13;;;14.79;71.81
54248;BME280;40161;39.768;2.722;2023-04-24T06:11:11;101200.31;;;14.99;71.99
54248;BME280;40161;39.768;2.722;2023-04-24T06:13:43;101183.66;;;14.85;71.25
54248;BME280;40161;39.768;2.722;2023-04-24T06:16:09;101146.81;;;14.66;70.48
54248;BME280;40161;39.768;2.722;2023-04-24T06:18:34;101204.25;;;14.94;71.54
54248;BME280;40161;39.768;2.722;2023-04-24T06:47:51;101198.84;;;15.12;68.94
54248;BME280;40161;39.768;2.722;2023-04-24T06:50:17;101193.31;;;15.12;67.90
54248;BME280;40161;39.768;2.722;2023-04-24T06:52:42;101216.34;;;15.38;67.63
54248;BME280;40161;39.768;2.722;2023-04-24T06:55:09;101189.88;;;15.33;67.04
54248;BME280;40161;39.768;2.722;2023-04-24T06:57:36;101182.78;;;15.36;67.49
54248;BME280;40161;39.768;2.722;2023-04-24T07:00:03;101170.97;;;15.42;67.38
54248;BME280;40161;39.768;2.722;2023-04-24T07:02:30;101215.03;;;15.83;67.11
54248;BME280;40161;39.768;2.722;2023-04-24T07:04:55;101205.94;;;15.83;66.86
54248;BME280;40161;39.768;2.722;2023-04-24T07:07:22;101187.72;;;15.82;67.32
54248;BME280;40161;39.768;2.722;2023-04-24T07:19:06;101211.59;;;16.44;66.45
54248;BME280;40161;39.768;2.722;2023-04-24T07:21:31;101216.75;;;16.59;65.79
54248;BME280;40161;39.768;2.722;2023-04-24T07:23:59;101220.31;;;16.60;65.98
54248;BME280;40161;39.768;2.722;2023-04-24T07:26:26;101228.28;;;16.76;64.02
54248;BME280;40161;39.768;2.722;2023-04-24T07:28:52;101233.00;;;16.79;63.44
54248;BME280;40161;39.768;2.722;2023-04-24T07:31:18;101236.19;;;16.81;62.99
54248;BME280;40161;39.768;2.722;2023-04-24T07:33:43;101260.31;;;16.95;63.48
54248;BME280;40161;39.768;2.722;2023-04-24T07:36:09;101251.22;;;16.94;63.08
54248;BME280;40161;39.768;2.722;2023-04-24T07:38:41;101266.28;;;17.11;61.91
54248;BME280;40161;39.768;2.722;2023-04-24T07:41:07;101232.22;;;17.11;60.06
54248;BME280;40161;39.768;2.722;2023-04-24T07:43:33;101250.78;;;17.28;60.10
54248;BME280;40161;39.768;2.722;2023-04-24T07:45:58;101225.84;;;17.24;59.13
54248;BME280;40161;39.768;2.722;2023-04-24T07:48:24;101217.13;;;17.22;57.98
54248;BME280;40161;39.768;2.722;2023-04-24T07:50:51;101215.09;;;17.37;57.72
54248;BME280;40161;39.768;2.722;2023-04-24T07:53:17;101206.72;;;17.48;59.05
54248;BME280;40161;39.768;2.722;2023-04-24T07:55:43;101181.38;;;17.46;59.85
54248;BME280;40161;39.768;2.722;2023-04-24T07:58:08;101258.44;;;18.12;60.99
54248;BME280;40161;39.768;2.722;2023-04-24T08:00:34;101251.59;;;18.31;64.10
54248;BME280;40161;39.768;2.722;2023-04-24T08:03:00;101271.75;;;18.45;64.97
54248;BME280;40161;39.768;2.722;2023-04-24T08:05:25;101277.25;;;18.53;66.21
54248;BME280;40161;39.768;2.722;2023-04-24T08:07:52;101271.31;;;18.50;67.18
54248;BME280;40161;39.768;2.722;2023-04-24T08:10:18;101249.16;;;18.40;68.87
54248;BME280;40161;39.768;2.722;2023-04-24T08:12:44;101242.47;;;18.26;70.41
54248;BME280;40161;39.768;2.722;2023-04-24T08:15:10;101283.63;;;18.49;72.20
54248;BME280;40161;39.768;2.722;2023-04-24T08:17:35;101279.66;;;18.47;72.67
54248;BME280;40161;39.768;2.722;2023-04-24T08:20:02;101265.78;;;18.43;73.53
54248;BME280;40161;39.768;2.722;2023-04-24T08:22:30;101294.66;;;18.64;73.45
54248;BME280;40161;39.768;2.722;2023-04-24T08:24:56;101291.47;;;18.65;74.47
54248;BME280;40161;39.768;2.722;2023-04-24T08:27:23;101300.19;;;18.67;75.31
54248;BME280;40161;39.768;2.722;2023-04-24T08:29:49;101245.59;;;18.36;75.94
54248;BME280;40161;39.768;2.722;2023-04-24T08:32:14;101304.56;;;18.65;76.33
54248;BME280;40161;39.768;2.722;2023-04-24T08:34:40;101289.91;;;18.57;76.30
54248;BME280;40161;39.768;2.722;2023-04-24T08:37:05;101314.06;;;18.67;76.48
54248;BME280;40161;39.768;2.722;2023-04-24T08:39:31;101312.91;;;18.72;77.20
54248;BME280;40161;39.768;2.722;2023-04-24T08:41:57;101313.69;;;18.69;77.20
54248;BME280;40161;39.768;2.722;2023-04-24T08:44:32;101286.38;;;18.53;76.82
54248;BME280;40161;39.768;2.722;2023-04-24T08:46:57;101276.09;;;18.46;78.03
54248;BME280;40161;39.768;2.722;2023-04-24T08:49:24;101314.47;;;18.73;78.47
54248;BME280;40161;39.768;2.722;2023-04-24T08:51:52;101332.59;;;18.92;78.84
54248;BME280;40161;39.768;2.722;2023-04-24T08:54:18;101308.09;;;18.76;77.65
54248;BME280;40161;39.768;2.722;2023-04-24T08:56:44;101337.75;;;18.97;78.29
54248;BME280;40161;39.768;2.722;2023-04-24T08:59:10;101329.75;;;18.99;78.73
54248;BME280;40161;39.768;2.722;2023-04-24T09:01:37;101334.41;;;19.13;79.99
54248;BME280;40161;39.768;2.722;2023-04-24T09:04:07;101328.09;;;19.09;78.78
54248;BME280;40161;39.768;2.722;2023-04-24T09:06:33;101317.50;;;18.93;78.99
54248;BME280;40161;39.768;2.722;2023-04-24T09:09:00;101346.34;;;19.17;79.07
54248;BME280;40161;39.768;2.722;2023-04-24T09:11:27;101285.41;;;18.81;77.84
54248;BME280;40161;39.768;2.722;2023-04-24T09:13:56;101344.31;;;19.21;76.72
54248;BME280;40161;39.768;2.722;2023-04-24T09:16:22;101345.47;;;19.24;76.41
54248;BME280;40161;39.768;2.722;2023-04-24T09:18:50;101338.31;;;19.23;76.00
54248;BME280;40161;39.768;2.722;2023-04-24T09:21:15;101321.66;;;19.19;76.19
54248;BME280;40161;39.768;2.722;2023-04-24T09:23:41;101357.63;;;19.40;75.73
54248;BME280;40161;39.768;2.722;2023-04-24T09:26:09;101352.06;;;19.40;74.46
54248;BME280;40161;39.768;2.722;2023-04-24T09:28:39;101341.72;;;19.44;74.93
54248;BME280;40161;39.768;2.722;2023-04-24T09:31:17;101341.59;;;19.55;74.48
54248;BME280;40161;39.768;2.722;2023-04-24T09:36:29;101347.50;;;19.61;71.47
54248;BME280;40161;39.768;2.722;2023-04-24T09:38:59;101345.88;;;19.67;71.76
54248;BME280;40161;39.768;2.722;2023-04-24T09:41:25;101341.50;;;19.70;71.01
54248;BME280;40161;39.768;2.722;2023-04-24T09:43:53;101336.78;;;19.63;71.52
54248;BME280;40161;39.768;2.722;2023-04-24T09:46:19;101338.31;;;19.67;71.84
54248;BME280;40161;39.768;2.722;2023-04-24T09:48:47;101341.84;;;19.75;72.40
54248;BME280;40161;39.768;2.722;2023-04-24T09:51:12;101362.31;;;19.92;72.09
54248;BME280;40161;39.768;2.722;2023-04-24T09:53:38;101367.41;;;20.01;72.53
54248;BME280;40161;39.768;2.722;2023-04-24T09:56:08;101370.56;;;20.03;70.77
54248;BME280;40161;39.768;2.722;2023-04-24T10:18:10;101342.81;;;20.57;66.70
54248;BME280;40161;39.768;2.722;2023-04-24T10:20:37;101329.66;;;20.57;66.11
54248;BME280;40161;39.768;2.722;2023-04-24T10:23:04;101338.25;;;20.70;67.11
54248;BME280;40161;39.768;2.722;2023-04-24T10:25:33;101337.50;;;20.66;66.84
54248;BME280;40161;39.768;2.722;2023-04-24T10:28:00;101329.25;;;20.59;66.44
54248;BME280;40161;39.768;2.722;2023-04-24T10:30:28;101340.31;;;20.66;65.21
54248;BME280;40161;39.768;2.722;2023-04-24T10:32:54;101332.78;;;20.63;64.89
54248;BME280;40161;39.768;2.722;2023-04-24T10:35:20;101332.16;;;20.79;65.98
54248;BME280;40161;39.768;2.722;2023-04-24T10:37:55;101320.16;;;20.82;65.00
54248;BME280;40161;39.768;2.722;2023-04-24T10:40:30;101338.34;;;20.90;63.40
54248;BME280;40161;39.768;2.722;2023-04-24T10:42:57;101332.09;;;20.82;63.01
54248;BME280;40161;39.768;2.722;2023-04-24T10:45:23;101351.44;;;20.93;61.98
54248;BME280;40161;39.768;2.722;2023-04-24T10:48:02;101359.09;;;21.13;61.43
54248;BME280;40161;39.768;2.722;2023-04-24T10:50:41;101345.69;;;21.04;62.91
54248;BME280;40161;39.768;2.722;2023-04-24T10:53:12;101350.97;;;20.98;63.82
54248;BME280;40161;39.768;2.722;2023-04-24T10:55:42;101350.19;;;20.98;64.14
54248;BME280;40161;39.768;2.722;2023-04-24T10:58:08;101312.81;;;20.65;61.98
54248;BME280;40161;39.768;2.722;2023-04-24T11:00:37;101345.56;;;20.88;64.29
54248;BME280;40161;39.768;2.722;2023-04-24T11:03:25;101338.88;;;20.81;63.44
54248;BME280;40161;39.768;2.722;2023-04-24T11:06:12;101324.63;;;20.76;62.43
54248;BME280;40161;39.768;2.722;2023-04-24T11:08:47;101329.88;;;20.97;62.76
54248;BME280;40161;39.768;2.722;2023-04-24T11:11:16;101311.69;;;20.89;63.33
54248;BME280;40161;39.768;2.722;2023-04-24T11:16:31;101331.13;;;21.16;63.56
54248;BME280;40161;39.768;2.722;2023-04-24T11:24:32;101311.78;;;21.05;63.36
54248;BME280;40161;39.768;2.722;2023-04-24T11:27:03;101294.13;;;21.12;63.18
54248;BME280;40161;39.768;2.722;2023-04-24T11:32:26;101299.06;;;21.28;63.48
54248;BME280;40161;39.768;2.722;2023-04-24T11:34:59;101316.00;;;21.41;62.46
54248;BME280;40161;39.768;2.722;2023-04-24T11:37:43;101295.41;;;21.31;62.72
54248;BME280;40161;39.768;2.722;2023-04-24T11:42:48;101302.53;;;21.36;62.84
54248;BME280;40161;39.768;2.722;2023-04-24T11:45:17;101313.63;;;21.39;63.28
54248;BME280;40161;39.768;2.722;2023-04-24T11:47:43;101311.72;;;21.32;62.35
54248;BME280;40161;39.768;2.722;2023-04-24T11:50:14;101314.16;;;21.30;61.66
54248;BME280;40161;39.768;2.722;2023-04-24T11:52:41;101316.09;;;21.33;62.09
54248;BME280;40161;39.768;2.722;2023-04-24T11:57:39;101298.63;;;21.29;61.91
54248;BME280;40161;39.768;2.722;2023-04-24T12:00:05;101271.59;;;21.03;62.36
54248;BME280;40161;39.768;2.722;2023-04-24T12:02:31;101230.53;;;20.80;62.03
54248;BME280;40161;39.768;2.722;2023-04-24T12:04:56;101269.63;;;21.23;60.93
54248;BME280;40161;39.768;2.722;2023-04-24T12:07:22;101289.59;;;21.45;60.27
54248;BME280;40161;39.768;2.722;2023-04-24T12:09:59;101282.22;;;21.55;60.53
54248;BME280;40161;39.768;2.722;2023-04-24T12:12:28;101275.41;;;21.56;60.99
54248;BME280;40161;39.768;2.722;2023-04-24T12:14:58;101276.22;;;21.56;59.65
54248;BME280;40161;39.768;2.722;2023-04-24T12:17:30;101267.75;;;21.60;60.42
54248;BME280;40161;39.768;2.722;2023-04-24T12:20:06;101237.97;;;21.53;60.66
54248;BME280;40161;39.768;2.722;2023-04-24T12:22:55;101261.81;;;21.78;61.00
54248;BME280;40161;39.768;2.722;2023-04-24T12:25:26;101249.69;;;21.85;60.43
54248;BME280;40161;39.768;2.722;2023-04-24T12:27:54;101263.97;;;21.90;60.61
54248;BME280;40161;39.768;2.722;2023-04-24T12:30:21;101251.84;;;21.97;61.31
54248;BME280;40161;39.768;2.722;2023-04-24T12:32:51;101231.91;;;21.95;60.59
54248;BME280;40161;39.768;2.722;2023-04-24T12:35:21;101249.38;;;22.19;59.75
54248;BME280;40161;39.768;2.722;2023-04-24T12:37:47;101240.34;;;22.11;59.22
54248;BME280;40161;39.768;2.722;2023-04-24T12:40:14;101234.28;;;22.16;59.33
54248;BME280;40161;39.768;2.722;2023-04-24T12:42:45;101257.44;;;22.33;59.17
54248;BME280;40161;39.768;2.722;2023-04-24T12:45:11;101254.31;;;22.31;58.85
54248;BME280;40161;39.768;2.722;2023-04-24T12:47:38;101236.41;;;22.28;58.80
54248;BME280;40161;39.768;2.722;2023-04-24T12:50:05;101243.47;;;22.33;58.47
54248;BME280;40161;39.768;2.722;2023-04-24T12:52:31;101253.97;;;22.45;58.73
54248;BME280;40161;39.768;2.722;2023-04-24T12:54:58;101222.34;;;22.32;59.06
54248;BME280;40161;39.768;2.722;2023-04-24T12:57:25;101225.22;;;22.45;58.69
54248;BME280;40161;39.768;2.722;2023-04-24T12:59:57;101171.78;;;22.07;58.12
54248;BME280;40161;39.768;2.722;2023-04-24T13:02:24;101207.13;;;22.33;58.49
54248;BME280;40161;39.768;2.722;2023-04-24T13:04:50;101208.81;;;22.31;58.28
54248;BME280;40161;39.768;2.722;2023-04-24T13:07:16;101214.84;;;22.45;58.52
54248;BME280;40161;39.768;2.722;2023-04-24T13:09:43;101199.91;;;22.52;58.45
54248;BME280;40161;39.768;2.722;2023-04-24T13:12:09;101217.09;;;22.67;58.01
54248;BME280;40161;39.768;2.722;2023-04-24T13:14:36;101209.56;;;22.64;58.30
54248;BME280;40161;39.768;2.722;2023-04-24T13:17:02;101213.09;;;22.68;58.18
54248;BME280;40161;39.768;2.722;2023-04-24T13:19:28;101222.00;;;22.63;57.92
54248;BME280;40161;39.768;2.722;2023-04-24T13:21:55;101217.19;;;22.63;57.42
54248;BME280;40161;39.768;2.722;2023-04-24T13:24:22;101188.72;;;22.52;58.21
54248;BME280;40161;39.768;2.722;2023-04-24T13:26:52;101206.09;;;22.60;57.92
54248;BME280;40161;39.768;2.722;2023-04-24T13:29:17;101218.06;;;22.77;57.53
54248;BME280;40161;39.768;2.722;2023-04-24T13:31:43;101165.19;;;22.49;57.36
54248;BME280;40161;39.768;2.722;2023-04-24T14:16:46;101134.84;;;23.10;50.30
54248;BME280;40161;39.768;2.722;2023-04-24T14:19:11;101129.06;;;23.17;50.65
54248;BME280;40161;39.768;2.722;2023-04-24T14:21:37;101131.44;;;23.31;51.03
54248;BME280;40161;39.768;2.722;2023-04-24T14:24:03;101111.13;;;23.14;48.95
54248;BME280;40161;39.768;2.722;2023-04-24T14:26:28;101138.63;;;23.45;49.62
54248;BME280;40161;39.768;2.722;2023-04-24T14:28:54;101135.69;;;23.36;49.48
54248;BME280;40161;39.768;2.722;2023-04-24T14:31:20;101154.22;;;23.46;49.89
54248;BME280;40161;39.768;2.722;2023-04-24T14:33:45;101154.00;;;23.40;49.38
54248;BME280;40161;39.768;2.722;2023-04-24T14:36:11;101128.66;;;23.31;48.39
54248;BME280;40161;39.768;2.722;2023-04-24T14:38:41;101135.28;;;23.37;45.52
54248;BME280;40161;39.768;2.722;2023-04-24T15:21:19;101108.59;;;23.33;46.53
54248;BME280;40161;39.768;2.722;2023-04-24T15:23:45;101081.16;;;23.28;45.85
54248;BME280;40161;39.768;2.722;2023-04-24T15:26:10;101085.09;;;23.30;41.44
54248;BME280;40161;39.768;2.722;2023-04-24T15:28:36;101102.34;;;23.41;42.16
54248;BME280;40161;39.768;2.722;2023-04-24T15:31:01;101094.63;;;23.45;42.40
54248;BME280;40161;39.768;2.722;2023-04-24T15:33:27;101109.06;;;23.57;42.25
54248;BME280;40161;39.768;2.722;2023-04-24T15:35:52;101094.06;;;23.51;42.09
54248;BME280;40161;39.768;2.722;2023-04-24T15:38:18;101040.81;;;23.25;41.48
54248;BME280;40161;39.768;2.722;2023-04-24T15:40:43;101054.38;;;23.39;42.44
54248;BME280;40161;39.768;2.722;2023-04-24T15:43:10;101100.00;;;23.65;44.13
54248;BME280;40161;39.768;2.722;2023-04-24T15:45:36;101061.34;;;23.35;44.49
54248;BME280;40161;39.768;2.722;2023-04-24T15:48:01;101099.00;;;23.59;47.30
54248;BME280;40161;39.768;2.722;2023-04-24T15:50:27;101102.22;;;23.45;49.37
54248;BME280;40161;39.768;2.722;2023-04-24T15:52:53;101084.72;;;23.28;50.11
54248;BME280;40161;39.768;2.722;2023-04-24T15:55:18;101079.25;;;23.25;50.29
54248;BME280;40161;39.768;2.722;2023-04-24T15:57:44;101114.63;;;23.31;50.72
54248;BME280;40161;39.768;2.722;2023-04-24T16:00:10;101081.09;;;23.02;50.69
54248;BME280;40161;39.768;2.722;2023-04-24T16:02:36;101080.97;;;22.93;50.16
54248;BME280;40161;39.768;2.722;2023-04-24T16:05:01;101090.41;;;22.83;49.09
54248;BME280;40161;39.768;2.722;2023-04-24T16:07:27;101096.53;;;22.78;48.04
54248;BME280;40161;39.768;2.722;2023-04-24T16:09:53;101101.78;;;22.75;48.84
54248;BME280;40161;39.768;2.722;2023-04-24T16:12:18;101053.28;;;22.37;49.87
54248;BME280;40161;39.768;2.722;2023-04-24T16:14:44;101109.94;;;22.70;49.40
54248;BME280;40161;39.768;2.722;2023-04-24T16:17:09;101104.78;;;22.68;48.95
54248;BME280;40161;39.768;2.722;2023-04-24T16:19:35;101105.84;;;22.58;50.03
54248;BME280;40161;39.768;2.722;2023-04-24T16:22:01;101133.63;;;22.65;49.34
54248;BME280;40161;39.768;2.722;2023-04-24T16:24:27;101109.25;;;22.49;49.49
54248;BME280;40161;39.768;2.722;2023-04-24T16:26:54;101120.53;;;22.46;49.69
54248;BME280;40161;39.768;2.722;2023-04-24T16:29:20;101118.00;;;22.51;49.95
54248;BME280;40161;39.768;2.722;2023-04-24T16:31:46;101126.03;;;22.49;49.93
54248;BME280;40161;39.768;2.722;2023-04-24T16:34:11;101118.97;;;22.45;50.26
54248;BME280;40161;39.768;2.722;2023-04-24T16:36:37;101113.72;;;22.47;50.41
54248;BME280;40161;39.768;2.722;2023-04-24T16:39:03;101115.03;;;22.42;50.54
54248;BME280;40161;39.768;2.722;2023-04-24T16:41:31;101104.81;;;22.36;48.56
54248;BME280;40161;39.768;2.722;2023-04-24T16:43:57;101087.28;;;22.35;49.27
54248;BME280;40161;39.768;2.722;2023-04-24T16:46:23;101098.16;;;22.46;49.58
54248;BME280;40161;39.768;2.722;2023-04-24T16:48:48;101044.72;;;22.11;48.75
54248;BME280;40161;39.768;2.722;2023-04-24T16:51:14;101079.34;;;22.34;46.83
54248;BME280;40161;39.768;2.722;2023-04-24T16:53:39;101083.69;;;22.35;43.16
54248;BME280;40161;39.768;2.722;2023-04-24T16:56:05;101070.22;;;22.30;42.73
54248;BME280;40161;39.768;2.722;2023-04-24T16:58:30;101092.47;;;22.49;43.52
54248;BME280;40161;39.768;2.722;2023-04-24T17:00:56;101062.56;;;22.34;43.50
54248;BME280;40161;39.768;2.722;2023-04-24T17:03:22;101084.44;;;22.51;42.91
54248;BME280;40161;39.768;2.722;2023-04-24T17:05:48;101082.88;;;22.50;42.75
54248;BME280;40161;39.768;2.722;2023-04-24T17:08:13;101076.00;;;22.39;43.37
54248;BME280;40161;39.768;2.722;2023-04-24T17:10:39;101068.38;;;22.39;43.16
54248;BME280;40161;39.768;2.722;2023-04-24T17:13:06;101075.03;;;22.45;43.86
54248;BME280;40161;39.768;2.722;2023-04-24T17:15:31;101073.19;;;22.39;43.20
54248;BME280;40161;39.768;2.722;2023-04-24T17:17:57;101061.69;;;22.37;42.93
54248;BME280;40161;39.768;2.722;2023-04-24T17:20:23;101088.47;;;22.50;43.05
54248;BME280;40161;39.768;2.722;2023-04-24T17:22:49;101093.25;;;22.50;42.79
54248;BME280;40161;39.768;2.722;2023-04-24T17:25:14;101076.09;;;22.35;42.85
54248;BME280;40161;39.768;2.722;2023-04-24T17:27:40;101071.09;;;22.43;43.23
54248;BME280;40161;39.768;2.722;2023-04-24T17:30:06;101074.34;;;22.41;43.73
54248;BME280;40161;39.768;2.722;2023-04-24T17:32:32;101057.16;;;22.26;43.72
54248;BME280;40161;39.768;2.722;2023-04-24T17:34:57;101067.28;;;22.37;43.71
54248;BME280;40161;39.768;2.722;2023-04-24T17:37:23;101061.75;;;22.33;44.36
54248;BME280;40161;39.768;2.722;2023-04-24T17:39:49;101051.66;;;22.23;44.56
54248;BME280;40161;39.768;2.722;2023-04-24T17:42:15;101084.28;;;22.42;45.23
54248;BME280;40161;39.768;2.722;2023-04-24T17:44:41;101083.69;;;22.35;46.04
54248;BME280;40161;39.768;2.722;2023-04-24T17:47:06;101086.66;;;22.27;45.52
54248;BME280;40161;39.768;2.722;2023-04-24T17:49:32;101052.16;;;22.01;45.67
54248;BME280;40161;39.768;2.722;2023-04-24T17:51:58;101065.50;;;22.10;45.75
54248;BME280;40161;39.768;2.722;2023-04-24T17:54:23;101068.50;;;22.03;46.29
54248;BME280;40161;39.768;2.722;2023-04-24T17:56:49;101073.72;;;22.01;45.63
54248;BME280;40161;39.768;2.722;2023-04-24T17:59:18;101089.63;;;22.04;45.62
54248;BME280;40161;39.768;2.722;2023-04-24T18:01:43;101068.84;;;21.89;45.97
54248;BME280;40161;39.768;2.722;2023-04-24T18:04:09;101085.25;;;22.03;46.12
54248;BME280;40161;39.768;2.722;2023-04-24T18:06:35;101067.78;;;21.99;45.89
54248;BME280;40161;39.768;2.722;2023-04-24T18:09:01;101078.53;;;22.00;46.29
54248;BME280;40161;39.768;2.722;2023-04-24T18:11:26;101068.47;;;21.87;46.51
54248;BME280;40161;39.768;2.722;2023-04-24T18:13:53;101089.78;;;21.97;47.26
54248;BME280;40161;39.768;2.722;2023-04-24T18:16:18;101087.41;;;21.95;47.88
54248;BME280;40161;39.768;2.722;2023-04-24T18:18:44;101072.84;;;21.88;48.83
54248;BME280;40161;39.768;2.722;2023-04-24T18:21:09;101049.94;;;21.60;49.90
54248;BME280;40161;39.768;2.722;2023-04-24T18:23:35;101071.34;;;21.67;51.86
54248;BME280;40161;39.768;2.722;2023-04-24T18:26:00;101077.78;;;21.64;52.43
54248;BME280;40161;39.768;2.722;2023-04-24T18:28:26;101069.03;;;21.45;52.95
54248;BME280;40161;39.768;2.722;2023-04-24T18:30:56;101075.03;;;21.44;53.29
54248;BME280;40161;39.768;2.722;2023-04-24T18:33:22;101062.91;;;21.34;53.67
54248;BME280;40161;39.768;2.722;2023-04-24T18:35:47;101079.56;;;21.38;53.60
54248;BME280;40161;39.768;2.722;2023-04-24T18:38:13;101077.03;;;21.43;53.25
54248;BME280;40161;39.768;2.722;2023-04-24T18:40:38;101062.47;;;21.36;53.19
54248;BME280;40161;39.768;2.722;2023-04-24T18:43:05;101096.34;;;21.54;53.28
54248;BME280;40161;39.768;2.722;2023-04-24T18:45:30;101094.78;;;21.53;53.36
54248;BME280;40161;39.768;2.722;2023-04-24T18:47:56;101071.31;;;21.30;53.13
54248;BME280;40161;39.768;2.722;2023-04-24T18:50:22;101079.66;;;21.34;53.04
54248;BME280;40161;39.768;2.722;2023-04-24T18:52:50;101072.59;;;21.26;53.68
54248;BME280;40161;39.768;2.722;2023-04-24T18:55:15;101073.13;;;21.21;53.58
54248;BME280;40161;39.768;2.722;2023-04-24T18:57:41;101101.66;;;21.28;53.94
54248;BME280;40161;39.768;2.722;2023-04-24T19:00:07;101089.66;;;21.12;54.38
54248;BME280;40161;39.768;2.722;2023-04-24T19:02:32;101089.50;;;20.99;54.43
54248;BME280;40161;39.768;2.722;2023-04-24T19:04:58;101107.25;;;21.08;54.81
54248;BME280;40161;39.768;2.722;2023-04-24T19:07:24;101115.69;;;21.05;55.24
54248;BME280;40161;39.768;2.722;2023-04-24T19:09:50;101113.03;;;20.98;55.23
54248;BME280;40161;39.768;2.722;2023-04-24T19:12:15;101087.44;;;20.83;55.02
54248;BME280;40161;39.768;2.722;2023-04-24T19:14:41;101093.63;;;20.71;55.78
54248;BME280;40161;39.768;2.722;2023-04-24T19:17:07;101091.41;;;20.62;56.02
54248;BME280;40161;39.768;2.722;2023-04-24T19:19:34;101117.03;;;20.77;56.19
54248;BME280;40161;39.768;2.722;2023-04-24T19:22:00;101106.13;;;20.62;55.66
54248;BME280;40161;39.768;2.722;2023-04-24T19:24:26;101099.06;;;20.58;56.07
54248;BME280;40161;39.768;2.722;2023-04-24T19:26:53;101126.44;;;20.63;56.80
54248;BME280;40161;39.768;2.722;2023-04-24T19:29:20;101122.56;;;20.57;56.71
54248;BME280;40161;39.768;2.722;2023-04-24T19:31:46;101129.03;;;20.50;56.87
54248;BME280;40161;39.768;2.722;2023-04-24T19:34:11;101121.81;;;20.29;57.52
54248;BME280;40161;39.768;2.722;2023-04-24T19:36:37;101130.53;;;20.31;57.04
54248;BME280;40161;39.768;2.722;2023-04-24T19:39:03;101127.03;;;20.27;58.25
54248;BME280;40161;39.768;2.722;2023-04-24T19:41:28;101135.28;;;20.34;56.91
54248;BME280;40161;39.768;2.722;2023-04-24T19:43:54;101137.06;;;20.21;58.22
54248;BME280;40161;39.768;2.722;2023-04-24T19:46:20;101107.84;;;20.06;58.06
54248;BME280;40161;39.768;2.722;2023-04-24T19:48:45;101094.25;;;19.84;58.75
54248;BME280;40161;39.768;2.722;2023-04-24T19:51:11;101146.44;;;20.07;58.32
54248;BME280;40161;39.768;2.722;2023-04-24T19:53:36;101126.44;;;19.89;58.67
54248;BME280;40161;39.768;2.722;2023-04-24T19:56:02;101136.91;;;19.78;59.42
54248;BME280;40161;39.768;2.722;2023-04-24T19:58:27;101165.78;;;19.91;58.45
54248;BME280;40161;39.768;2.722;2023-04-24T20:00:55;101171.06;;;19.82;58.67
54248;BME280;40161;39.768;2.722;2023-04-24T20:03:21;101169.19;;;19.75;57.92
54248;BME280;40161;39.768;2.722;2023-04-24T20:05:47;101177.44;;;19.82;57.81
54248;BME280;40161;39.768;2.722;2023-04-24T20:08:12;101161.34;;;19.66;57.55
54248;BME280;40161;39.768;2.722;2023-04-24T20:10:38;101144.81;;;19.52;57.92
54248;BME280;40161;39.768;2.722;2023-04-24T20:13:03;101181.22;;;19.68;58.80
54248;BME280;40161;39.768;2.722;2023-04-24T20:15:29;101173.50;;;19.45;58.72
54248;BME280;40161;39.768;2.722;2023-04-24T20:17:57;101187.78;;;19.48;58.04
54248;BME280;40161;39.768;2.722;2023-04-24T20:20:22;101189.34;;;19.52;57.42
54248;BME280;40161;39.768;2.722;2023-04-24T20:22:48;101152.22;;;19.32;58.29
54248;BME280;40161;39.768;2.722;2023-04-24T20:25:13;101133.81;;;19.07;58.31
54248;BME280;40161;39.768;2.722;2023-04-24T20:27:39;101131.19;;;18.93;59.35
54248;BME280;40161;39.768;2.722;2023-04-24T20:30:06;101190.47;;;19.24;59.48
54248;BME280;40161;39.768;2.722;2023-04-24T20:32:38;101163.19;;;19.08;58.81
54248;BME280;40161;39.768;2.722;2023-04-24T20:35:04;101164.44;;;19.04;59.00
54248;BME280;40161;39.768;2.722;2023-04-24T20:37:29;101131.75;;;18.77;59.25
54248;BME280;40161;39.768;2.722;2023-04-24T20:39:55;101180.59;;;19.16;57.83
54248;BME280;40161;39.768;2.722;2023-04-24T20:42:21;101187.16;;;19.33;57.08
54248;BME280;40161;39.768;2.722;2023-04-24T20:44:46;101187.59;;;19.31;57.54
54248;BME280;40161;39.768;2.722;2023-04-24T20:47:13;101194.31;;;19.34;58.28
54248;BME280;40161;39.768;2.722;2023-04-24T20:49:38;101209.03;;;19.34;57.58
54248;BME280;40161;39.768;2.722;2023-04-24T20:52:04;101181.13;;;19.04;58.82